Time;durP1;ratioP1;P1;durP2;ratioP2;P2;SDS_P1;SDS_P2;PMS_P1;PMS_P2;Temp;Humidity;BMP_temperature;BMP_pressure;BME280_temperature;BME280_humidity;BME280_pressure;Samples;Min_cycle;Max_cycle;Signal;HPM_P1;HPM_P2
2022/02/17 00:04:24;;;;;;;0.20;0.10;;;14.40;91.60;;;;;;9986196;28;20486;-67
2022/02/17 00:09:15;;;;;;;0.43;0.17;;;14.40;91.60;;;;;;9989035;28;20331;-67
2022/02/17 00:14:06;;;;;;;0.57;0.22;;;14.30;91.50;;;;;;9976248;28;20029;-67
2022/02/17 00:18:56;;;;;;;0.25;0.10;;;14.30;91.50;;;;;;9976976;28;20446;-66
2022/02/17 00:23:47;;;;;;;0.05;0.05;;;14.30;91.40;;;;;;9956921;28;20080;-67
2022/02/17 00:28:38;;;;;;;0.10;0.10;;;14.40;91.40;;;;;;9988299;28;20053;-68
2022/02/17 00:33:28;;;;;;;0.10;0.10;;;14.10;91.20;;;;;;9979788;28;20100;-67
2022/02/17 00:38:19;;;;;;;0.00;0.00;;;14.40;91.30;;;;;;9983338;28;20106;-67
2022/02/17 00:43:10;;;;;;;0.17;0.17;;;14.40;91.30;;;;;;9980632;28;20104;-67
2022/02/17 00:48:00;;;;;;;1.70;0.20;;;14.40;91.30;;;;;;9984007;28;20567;-67
2022/02/17 00:52:51;;;;;;;0.20;0.20;;;14.40;91.30;;;;;;9968473;28;20027;-67
2022/02/17 00:57:42;;;;;;;0.52;0.05;;;14.40;91.30;;;;;;9977324;28;20038;-68
2022/02/17 01:02:32;;;;;;;0.00;0.00;;;14.30;91.40;;;;;;9975346;28;20050;-68
2022/02/17 01:07:23;;;;;;;0.10;0.10;;;14.30;91.50;;;;;;9973225;28;20384;-67
2022/02/17 01:12:14;;;;;;;0.08;0.08;;;14.20;91.70;;;;;;9974475;28;20057;-67
2022/02/17 01:17:05;;;;;;;0.10;0.10;;;14.30;91.50;;;;;;9975400;28;20031;-67
2022/02/17 01:21:56;;;;;;;0.10;0.10;;;14.30;91.50;;;;;;9973335;28;20452;-67
2022/02/17 01:26:48;;;;;;;0.20;0.17;;;14.20;91.50;;;;;;9973309;28;20036;-66
2022/02/17 01:31:38;;;;;;;0.15;0.15;;;14.10;91.70;;;;;;9968785;28;20122;-67
2022/02/17 01:36:29;;;;;;;0.10;0.10;;;14.10;91.70;;;;;;9972089;28;20030;-69
2022/02/17 01:41:20;;;;;;;0.00;0.00;;;14.10;91.80;;;;;;9956938;28;20056;-66
2022/02/17 01:46:10;;;;;;;0.52;0.17;;;14.20;91.70;;;;;;9972709;28;20026;-67
2022/02/17 01:51:01;;;;;;;0.28;0.20;;;14.10;91.70;;;;;;9945700;28;20295;-66
2022/02/17 01:55:54;;;;;;;0.40;0.10;;;14.00;92.00;;;;;;9975178;28;20517;-67
2022/02/17 02:00:45;;;;;;;0.03;0.03;;;14.00;92.30;;;;;;9970570;28;20417;-67
2022/02/17 02:05:36;;;;;;;0.00;0.00;;;14.00;92.10;;;;;;9971320;28;20046;-67
2022/02/17 02:10:27;;;;;;;0.08;0.08;;;14.00;92.10;;;;;;9972280;28;20034;-67
2022/02/17 02:15:18;;;;;;;0.22;0.22;;;14.00;92.20;;;;;;9970118;28;20037;-68
2022/02/17 02:20:17;;;;;;;0.00;0.00;;;14.00;92.30;;;;;;9970739;28;20098;-67
2022/02/17 02:25:08;;;;;;;0.10;0.10;;;14.00;92.30;;;;;;9971173;28;20141;-68
2022/02/17 02:29:59;;;;;;;0.10;0.10;;;14.00;92.40;;;;;;9970850;28;20345;-68
2022/02/17 02:34:50;;;;;;;0.10;0.10;;;14.00;92.50;;;;;;9970155;28;20105;-67
2022/02/17 02:39:40;;;;;;;0.00;0.00;;;14.00;92.50;;;;;;9971362;28;20026;-67
2022/02/17 02:44:31;;;;;;;0.85;0.10;;;14.00;92.50;;;;;;9972376;28;20038;-66
2022/02/17 02:49:23;;;;;;;0.00;0.00;;;14.00;92.50;;;;;;9976306;28;20026;-68
2022/02/17 02:54:13;;;;;;;0.03;0.00;;;14.00;92.40;;;;;;9976394;28;20030;-68
2022/02/17 02:59:04;;;;;;;0.00;0.00;;;14.10;92.40;;;;;;9961254;28;20230;-67
2022/02/17 03:03:55;;;;;;;0.00;0.00;;;14.00;92.40;;;;;;9978895;28;20050;-67
2022/02/17 03:08:45;;;;;;;0.00;0.00;;;14.00;92.50;;;;;;9977172;28;20027;-67
2022/02/17 03:13:36;;;;;;;0.00;0.00;;;14.00;92.50;;;;;;9976325;28;20590;-68
2022/02/17 03:18:27;;;;;;;0.03;0.03;;;14.00;92.60;;;;;;9978386;28;20512;-68
2022/02/17 03:23:19;;;;;;;0.22;0.10;;;13.90;92.60;;;;;;9962814;28;20054;-69
2022/02/17 03:28:10;;;;;;;0.00;0.00;;;13.90;92.70;;;;;;9975940;28;20105;-68
2022/02/17 03:33:02;;;;;;;0.00;0.00;;;13.90;92.70;;;;;;9977001;28;20081;-68
2022/02/17 03:37:52;;;;;;;0.10;0.00;;;13.90;92.80;;;;;;9963820;28;20188;-67
2022/02/17 03:42:43;;;;;;;0.03;0.00;;;13.90;92.80;;;;;;9981933;28;20287;-68
2022/02/17 03:47:34;;;;;;;0.08;0.00;;;13.90;92.70;;;;;;9977174;28;20026;-69
2022/02/17 03:52:27;;;;;;;0.20;0.10;;;13.90;92.70;;;;;;9978380;28;20038;-69
2022/02/17 03:57:18;;;;;;;0.10;0.00;;;13.90;92.80;;;;;;9973954;28;20029;-67
2022/02/17 04:02:09;;;;;;;0.17;0.08;;;13.90;92.70;;;;;;9979872;28;20441;-67
2022/02/17 04:06:59;;;;;;;0.00;0.00;;;13.90;92.70;;;;;;9973360;28;20169;-67
2022/02/17 04:11:50;;;;;;;0.00;0.00;;;13.90;92.70;;;;;;9975771;28;20034;-67
2022/02/17 04:16:41;;;;;;;1.55;0.00;;;13.90;92.60;;;;;;9975684;28;20409;-68
2022/02/17 04:21:32;;;;;;;1.02;0.05;;;14.00;92.60;;;;;;9974436;28;20042;-67
2022/02/17 04:26:22;;;;;;;0.00;0.00;;;14.00;92.50;;;;;;9974695;28;20077;-67
2022/02/17 04:31:14;;;;;;;0.13;0.10;;;14.10;92.30;;;;;;9973376;28;20018;-67
2022/02/17 04:36:05;;;;;;;0.00;0.00;;;14.20;92.30;;;;;;9973597;28;20038;-67
2022/02/17 04:46:07;;;;;;;0.10;0.10;;;14.30;92.20;;;;;;9974744;28;20092;-68
2022/02/17 04:50:58;;;;;;;0.03;0.03;;;14.30;92.30;;;;;;9950971;28;20076;-67
2022/02/17 04:55:48;;;;;;;0.00;0.00;;;14.20;92.30;;;;;;9960912;28;20026;-67
2022/02/17 05:00:39;;;;;;;0.22;0.00;;;14.30;92.10;;;;;;9973576;28;20321;-69
2022/02/17 05:05:30;;;;;;;1.00;0.00;;;14.40;92.00;;;;;;9971877;28;20038;-67
2022/02/17 05:10:20;;;;;;;0.00;0.00;;;14.40;92.10;;;;;;9971726;28;20026;-68
2022/02/17 05:15:11;;;;;;;0.08;0.03;;;14.30;92.10;;;;;;9972619;28;20259;-68
2022/02/17 05:20:02;;;;;;;0.00;0.00;;;14.20;92.30;;;;;;9971764;28;20102;-67
2022/02/17 05:24:53;;;;;;;0.10;0.00;;;14.00;92.50;;;;;;9968904;28;20502;-67
2022/02/17 05:29:44;;;;;;;0.38;0.15;;;13.60;93.00;;;;;;9970352;28;20022;-67
2022/02/17 05:34:34;;;;;;;0.60;0.13;;;13.40;93.30;;;;;;9969529;28;20568;-67
2022/02/17 05:39:25;;;;;;;0.15;0.00;;;13.30;93.60;;;;;;9971856;28;20022;-67
2022/02/17 05:44:16;;;;;;;0.00;0.00;;;13.10;93.90;;;;;;9971686;28;20069;-68
2022/02/17 05:49:06;;;;;;;0.20;0.13;;;13.00;94.20;;;;;;9971980;28;20113;-68
2022/02/17 05:53:57;;;;;;;3.22;0.20;;;12.90;94.40;;;;;;9954661;28;20516;-68
2022/02/17 05:58:48;;;;;;;0.20;0.10;;;12.90;94.50;;;;;;9980556;28;20077;-68
2022/02/17 06:03:38;;;;;;;1.35;0.40;;;12.90;94.30;;;;;;9973367;28;20108;-68
2022/02/17 06:08:29;;;;;;;2.55;1.33;;;13.00;94.20;;;;;;9972943;28;20026;-68
2022/02/17 06:13:20;;;;;;;0.52;0.40;;;13.00;93.90;;;;;;9976412;28;20415;-69
2022/02/17 06:18:10;;;;;;;2.17;0.75;;;12.90;93.90;;;;;;9978129;28;20034;-68
2022/02/17 06:23:01;;;;;;;2.15;0.70;;;12.90;93.60;;;;;;9984086;28;20473;-67
2022/02/17 06:27:52;;;;;;;2.00;0.73;;;12.80;93.40;;;;;;9979478;28;20337;-67
2022/02/17 06:32:54;;;;;;;3.28;0.85;;;12.70;93.30;;;;;;9979179;28;20033;-68
2022/02/17 06:37:45;;;;;;;2.88;0.50;;;12.70;93.00;;;;;;9976703;28;20759;-67
2022/02/17 06:42:36;;;;;;;1.85;0.60;;;12.80;92.70;;;;;;9978314;28;20568;-68
2022/02/17 06:47:26;;;;;;;3.53;0.77;;;12.90;92.40;;;;;;9979046;28;20503;-68
2022/02/17 06:52:17;;;;;;;2.20;0.90;;;13.00;92.10;;;;;;9977853;28;20062;-68
2022/02/17 06:57:08;;;;;;;4.07;1.00;;;13.00;91.70;;;;;;9980930;28;20378;-68
2022/02/17 07:01:59;;;;;;;5.03;1.13;;;13.10;91.00;;;;;;9976230;28;20077;-68
2022/02/17 07:06:50;;;;;;;4.15;1.08;;;13.10;90.60;;;;;;9969001;28;20030;-68
2022/02/17 07:11:42;;;;;;;4.45;1.10;;;13.10;90.10;;;;;;9970042;28;20476;-67
2022/02/17 07:16:35;;;;;;;7.13;1.38;;;13.10;89.60;;;;;;9976820;28;20054;-69
2022/02/17 07:21:26;;;;;;;6.00;1.92;;;13.10;89.20;;;;;;9976174;28;20030;-68
2022/02/17 07:26:17;;;;;;;4.15;1.15;;;13.10;88.90;;;;;;9973919;28;20089;-68
2022/02/17 07:31:09;;;;;;;3.40;1.55;;;13.00;88.70;;;;;;9973500;28;20389;-69
2022/02/17 07:35:59;;;;;;;6.32;2.88;;;13.00;88.40;;;;;;9974308;28;20074;-66
2022/02/17 07:40:50;;;;;;;3.05;2.00;;;13.00;88.40;;;;;;9974000;28;20456;-64
2022/02/17 07:45:41;;;;;;;9.23;2.28;;;13.00;88.10;;;;;;9968095;28;20042;-64
2022/02/17 07:50:33;;;;;;;2.88;1.30;;;13.00;88.10;;;;;;9972306;28;20033;-67
2022/02/17 07:55:27;;;;;;;4.97;1.35;;;12.90;88.00;;;;;;9973680;28;20064;-65
2022/02/17 08:00:18;;;;;;;4.00;1.10;;;12.90;87.90;;;;;;9972940;28;20523;-65
2022/02/17 08:05:12;;;;;;;5.18;1.60;;;12.90;88.00;;;;;;9973525;28;20137;-65
2022/02/17 08:10:04;;;;;;;5.18;1.55;;;12.90;88.00;;;;;;9971502;28;20025;-67
2022/02/17 08:14:55;;;;;;;4.85;1.38;;;13.00;87.90;;;;;;9972671;28;20501;-66
2022/02/17 08:19:46;;;;;;;4.20;2.00;;;13.10;87.30;;;;;;9971860;28;20033;-65
2022/02/17 08:24:36;;;;;;;7.40;1.80;;;13.10;86.90;;;;;;9970364;28;20088;-68
2022/02/17 08:29:31;;;;;;;12.85;3.65;;;13.20;86.70;;;;;;9955542;28;20057;-66
2022/02/17 08:34:22;;;;;;;8.07;1.88;;;13.20;86.50;;;;;;9972220;28;20444;-62
2022/02/17 08:39:12;;;;;;;12.82;1.40;;;13.20;85.90;;;;;;9976502;28;20035;-67
2022/02/17 08:44:05;;;;;;;7.68;2.10;;;13.30;85.60;;;;;;9955710;28;20050;-63
2022/02/17 08:48:55;;;;;;;4.35;1.85;;;13.30;84.60;;;;;;9976874;28;20131;-67
2022/02/17 08:53:46;;;;;;;5.13;2.10;;;13.30;83.60;;;;;;9977740;28;20249;-65
2022/02/17 08:58:37;;;;;;;8.68;2.22;;;13.40;81.80;;;;;;9955552;28;20240;-68
2022/02/17 09:03:28;;;;;;;3.88;2.35;;;13.40;81.00;;;;;;9974010;28;20042;-65
2022/02/17 09:08:18;;;;;;;8.68;2.50;;;13.40;80.00;;;;;;9955609;28;20104;-64
2022/02/17 09:13:09;;;;;;;5.53;1.80;;;13.50;80.00;;;;;;9970725;28;20038;-66
2022/02/17 09:17:59;;;;;;;11.45;2.47;;;13.70;77.30;;;;;;9970965;28;20029;-63
2022/02/17 09:22:50;;;;;;;9.73;2.67;;;13.70;76.60;;;;;;9970030;28;20072;-65
2022/02/17 09:27:41;;;;;;;7.95;2.33;;;13.70;76.10;;;;;;9951311;28;20081;-63
2022/02/17 09:32:32;;;;;;;6.32;1.55;;;13.70;75.90;;;;;;9969963;28;20454;-65
2022/02/17 09:37:23;;;;;;;8.57;2.60;;;13.80;75.80;;;;;;9972420;28;20030;-65
2022/02/17 09:42:14;;;;;;;8.80;2.30;;;13.90;76.20;;;;;;9972020;28;20088;-63
2022/02/17 09:47:07;;;;;;;7.75;1.90;;;13.90;75.10;;;;;;9972035;28;20091;-66
2022/02/17 09:51:58;;;;;;;5.38;2.40;;;13.80;75.10;;;;;;9971726;28;20029;-62
2022/02/17 09:56:49;;;;;;;4.07;2.80;;;13.90;75.10;;;;;;9969737;28;20022;-64
2022/02/17 10:01:55;;;;;;;4.93;1.13;;;14.00;74.90;;;;;;9968492;28;20046;-63
2022/02/17 10:06:58;;;;;;;5.35;2.35;;;13.90;72.90;;;;;;9970875;28;20509;-63
2022/02/17 10:11:51;;;;;;;5.28;1.67;;;13.90;72.50;;;;;;9970906;28;20141;-69
2022/02/17 10:16:54;;;;;;;13.48;2.80;;;13.80;71.80;;;;;;9969060;28;20023;-61
2022/02/17 10:21:44;;;;;;;11.52;2.80;;;13.90;70.00;;;;;;9968364;28;20072;-62
2022/02/17 10:26:35;;;;;;;9.95;2.28;;;14.00;69.20;;;;;;9969012;28;20070;-62
2022/02/17 10:31:31;;;;;;;9.00;1.85;;;14.10;68.70;;;;;;9968323;28;20045;-62
2022/02/17 10:36:36;;;;;;;11.13;3.15;;;13.90;68.50;;;;;;9971261;28;20300;-62
2022/02/17 10:41:48;;;;;;;9.27;2.33;;;14.00;67.70;;;;;;9946625;28;20023;-63
2022/02/17 10:46:39;;;;;;;10.00;2.67;;;14.30;68.00;;;;;;9969027;28;20046;-62
2022/02/17 10:51:30;;;;;;;8.73;3.80;;;14.40;68.00;;;;;;9968927;28;20030;-62
2022/02/17 10:56:24;;;;;;;5.68;2.10;;;14.40;67.60;;;;;;9964618;28;20038;-63
2022/02/17 11:01:17;;;;;;;9.30;2.88;;;14.40;67.80;;;;;;9950334;28;20053;-65
2022/02/17 11:06:13;;;;;;;8.65;2.30;;;14.30;68.20;;;;;;9955213;28;20034;-62
2022/02/17 11:11:04;;;;;;;6.65;2.20;;;14.30;68.10;;;;;;9978975;28;20084;-62
2022/02/17 11:15:58;;;;;;;9.23;1.58;;;14.50;68.10;;;;;;9974117;28;20552;-60
2022/02/17 11:20:51;;;;;;;7.38;1.88;;;14.40;67.40;;;;;;9976760;28;20050;-64
2022/02/17 11:25:42;;;;;;;7.57;2.30;;;14.30;67.20;;;;;;9980993;28;20449;-65
2022/02/17 11:30:34;;;;;;;9.15;2.10;;;14.30;66.60;;;;;;9980111;28;20507;-62
2022/02/17 11:35:31;;;;;;;8.13;2.25;;;14.50;66.20;;;;;;9958985;28;20034;-63
2022/02/17 11:40:22;;;;;;;6.05;1.80;;;14.70;65.00;;;;;;9974760;28;20041;-62
2022/02/17 11:45:20;;;;;;;9.68;3.47;;;14.60;64.30;;;;;;9982226;28;20042;-63
2022/02/17 11:50:28;;;;;;;15.27;4.00;;;14.60;64.30;;;;;;9971125;28;20030;-63
2022/02/17 11:55:20;;;;;;;13.82;3.33;;;14.70;63.80;;;;;;9979689;28;20026;-62
2022/02/17 12:00:19;;;;;;;10.55;4.35;;;14.70;64.60;;;;;;9987155;28;20072;-63
2022/02/17 12:05:14;;;;;;;9.88;2.45;;;14.80;62.60;;;;;;9978091;28;20035;-63
2022/02/17 12:10:27;;;;;;;13.25;3.85;;;15.00;62.60;;;;;;9979697;28;20022;-64
2022/02/17 12:15:20;;;;;;;12.07;2.55;;;15.10;61.20;;;;;;9973378;28;20080;-64
2022/02/17 12:20:16;;;;;;;10.65;3.53;;;15.10;62.20;;;;;;9968657;28;20030;-66
2022/02/17 12:25:19;;;;;;;14.35;2.97;;;15.20;61.90;;;;;;9982043;28;20045;-69
2022/02/17 12:30:11;;;;;;;8.15;3.70;;;14.90;62.50;;;;;;9978596;28;20034;-65
2022/02/17 12:35:02;;;;;;;9.88;3.47;;;15.00;61.50;;;;;;9954895;28;20421;-63
2022/02/17 12:39:54;;;;;;;12.85;2.97;;;15.00;60.60;;;;;;9963590;28;20030;-68
2022/02/17 12:44:46;;;;;;;8.57;2.42;;;15.00;60.20;;;;;;9991793;28;20500;-68
2022/02/17 12:49:38;;;;;;;4.60;1.48;;;15.10;59.20;;;;;;9989291;28;20029;-64
2022/02/17 12:54:28;;;;;;;10.25;2.67;;;15.00;57.70;;;;;;9970145;28;20065;-63
2022/02/17 12:59:19;;;;;;;9.88;2.40;;;15.10;58.10;;;;;;9980385;28;20344;-62
2022/02/17 13:04:10;;;;;;;9.05;2.80;;;15.30;57.60;;;;;;9970981;28;20492;-66
2022/02/17 13:09:13;;;;;;;19.00;3.75;;;15.50;57.50;;;;;;9971213;28;20077;-62
2022/02/17 13:14:08;;;;;;;13.98;2.63;;;15.40;56.40;;;;;;9970519;28;20022;-65
2022/02/17 13:18:59;;;;;;;;;;;15.30;57.40;;;;;;9971316;28;20064;-62
2022/02/17 13:24:05;;;;;;;10.02;2.60;;;15.20;57.70;;;;;;9951346;28;19988;-64
2022/02/17 13:28:58;;;;;;;6.47;2.13;;;15.50;58.30;;;;;;9970914;28;20030;-65
2022/02/17 13:33:49;;;;;;;10.65;2.47;;;15.40;58.30;;;;;;9970652;28;20359;-62
2022/02/17 13:38:39;;;;;;;8.13;2.50;;;15.00;59.10;;;;;;9971974;28;20081;-65
2022/02/17 13:43:44;;;;;;;14.88;3.35;;;15.40;59.70;;;;;;9970336;28;20448;-61
2022/02/17 13:48:37;;;;;;;10.40;2.70;;;15.90;59.60;;;;;;9971087;28;20520;-66
2022/02/17 13:53:39;;;;;;;8.95;2.45;;;16.20;60.70;;;;;;9970035;28;20656;-62
2022/02/17 13:58:31;;;;;;;7.22;1.98;;;16.50;60.30;;;;;;9969774;28;20034;-67
2022/02/17 14:03:26;;;;;;;10.95;3.25;;;16.50;58.40;;;;;;9969926;28;20314;-65
2022/02/17 14:08:18;;;;;;;12.88;3.70;;;16.00;55.80;;;;;;9970748;28;20525;-65
2022/02/17 14:13:09;;;;;;;7.38;3.00;;;15.90;55.60;;;;;;9970156;28;20177;-71
2022/02/17 14:18:00;;;;;;;5.95;1.52;;;16.00;55.90;;;;;;9950349;28;20642;-62
2022/02/17 14:22:50;;;;;;;8.75;2.20;;;15.80;55.60;;;;;;9969179;28;20036;-67
2022/02/17 14:27:41;;;;;;;3.60;1.83;;;15.80;54.80;;;;;;9950638;28;20026;-68
2022/02/17 14:32:32;;;;;;;7.53;1.75;;;15.90;54.00;;;;;;9968646;28;20287;-63
2022/02/17 14:37:23;;;;;;;6.40;2.33;;;16.10;53.70;;;;;;9952140;28;20123;-66
2022/02/17 14:42:13;;;;;;;9.40;3.13;;;16.30;53.40;;;;;;9972503;28;20374;-63
2022/02/17 14:47:04;;;;;;;5.85;2.47;;;16.30;53.70;;;;;;9976521;28;20034;-66
2022/02/17 14:51:57;;;;;;;7.38;2.28;;;16.30;54.10;;;;;;9976205;28;20032;-66
2022/02/17 14:56:48;;;;;;;15.48;4.70;;;15.90;54.80;;;;;;9974986;28;20034;-64
2022/02/17 15:01:40;;;;;;;6.72;2.80;;;15.70;55.10;;;;;;9976621;28;20046;-65
2022/02/17 15:06:31;;;;;;;7.30;2.20;;;15.20;56.20;;;;;;9979439;28;20034;-64
2022/02/17 15:11:22;;;;;;;3.88;1.98;;;14.90;57.60;;;;;;9976980;28;20031;-65
2022/02/17 15:16:12;;;;;;;12.50;2.35;;;14.70;58.70;;;;;;9975970;28;20073;-65
2022/02/17 15:21:03;;;;;;;9.23;1.95;;;14.50;59.60;;;;;;9975509;28;20015;-64
2022/02/17 15:25:54;;;;;;;9.48;2.50;;;14.50;60.20;;;;;;9977170;28;20451;-66
2022/02/17 15:30:46;;;;;;;10.25;2.67;;;14.50;60.60;;;;;;9976867;28;20556;-65
2022/02/17 15:35:38;;;;;;;9.95;1.95;;;14.50;61.00;;;;;;9977445;28;20038;-65
2022/02/17 15:40:35;;;;;;;15.00;3.05;;;14.30;61.80;;;;;;9975663;28;20254;-66
2022/02/17 15:45:25;;;;;;;9.52;2.97;;;14.20;61.90;;;;;;9970528;28;20432;-64
2022/02/17 15:50:18;;;;;;;8.38;2.00;;;14.20;62.30;;;;;;9975894;28;20044;-66
2022/02/17 15:55:10;;;;;;;10.73;2.88;;;14.10;62.60;;;;;;9976800;28;20030;-64
2022/02/17 16:00:02;;;;;;;9.40;2.65;;;14.10;62.90;;;;;;9975743;28;20026;-66
2022/02/17 16:04:53;;;;;;;12.50;2.65;;;14.10;63.10;;;;;;9976585;28;20117;-64
2022/02/17 16:09:43;;;;;;;12.93;2.78;;;14.10;63.50;;;;;;9975160;28;20790;-66
2022/02/17 16:14:34;;;;;;;7.15;2.17;;;14.10;63.50;;;;;;9977505;28;20042;-66
2022/02/17 16:19:25;;;;;;;4.90;1.60;;;13.90;63.80;;;;;;9975446;28;20027;-68
2022/02/17 16:24:16;;;;;;;5.90;2.17;;;13.70;64.10;;;;;;9960928;28;20035;-64
2022/02/17 16:29:07;;;;;;;11.80;2.65;;;13.60;64.40;;;;;;9975338;28;20103;-64
2022/02/17 16:33:57;;;;;;;10.68;2.60;;;13.50;64.40;;;;;;9973881;28;20042;-63
2022/02/17 16:38:48;;;;;;;14.00;3.92;;;13.40;64.70;;;;;;9974798;28;20054;-64
2022/02/17 16:43:39;;;;;;;11.27;2.17;;;13.20;64.80;;;;;;9973164;28;20313;-68
2022/02/17 16:48:31;;;;;;;9.55;2.42;;;13.10;65.00;;;;;;9973517;28;20469;-64
2022/02/17 16:53:23;;;;;;;11.45;3.42;;;13.00;65.80;;;;;;9956018;28;20037;-68
2022/02/17 16:58:14;;;;;;;10.63;2.53;;;12.90;65.30;;;;;;9972868;28;20034;-66
2022/02/17 17:03:05;;;;;;;3.45;1.50;;;12.80;65.50;;;;;;9971830;28;20053;-66
2022/02/17 17:07:56;;;;;;;10.00;2.55;;;12.70;65.60;;;;;;9972529;28;20022;-63
2022/02/17 17:12:47;;;;;;;6.68;2.53;;;12.70;65.70;;;;;;9973584;28;20031;-65
2022/02/17 17:17:39;;;;;;;11.15;2.20;;;12.60;66.00;;;;;;9975614;28;20041;-65
2022/02/17 17:22:29;;;;;;;8.80;2.50;;;12.60;66.20;;;;;;9972367;28;20524;-64
2022/02/17 17:27:20;;;;;;;4.72;2.08;;;12.60;66.30;;;;;;9953147;28;20030;-62
2022/02/17 17:32:11;;;;;;;10.50;3.42;;;12.60;66.30;;;;;;9972099;28;20400;-64
2022/02/17 17:37:02;;;;;;;11.02;2.47;;;12.60;66.30;;;;;;9971393;28;20291;-60
2022/02/17 17:41:54;;;;;;;6.20;2.35;;;12.60;66.40;;;;;;9970404;28;20448;-65
2022/02/17 17:46:46;;;;;;;7.38;1.73;;;12.50;66.50;;;;;;9971264;28;20030;-64
2022/02/17 17:51:36;;;;;;;9.68;2.60;;;12.50;66.70;;;;;;9971022;28;20544;-63
2022/02/17 17:56:27;;;;;;;8.10;2.58;;;12.50;66.80;;;;;;9964984;28;20026;-62
2022/02/17 18:01:18;;;;;;;3.30;2.20;;;12.50;66.80;;;;;;9950202;28;20050;-62
2022/02/17 18:06:09;;;;;;;7.63;1.92;;;12.40;67.10;;;;;;9967708;28;20402;-62
2022/02/17 18:11:00;;;;;;;6.70;2.75;;;12.50;67.30;;;;;;9969609;28;20022;-62
2022/02/17 18:15:50;;;;;;;12.73;2.72;;;12.50;67.30;;;;;;9944891;28;20033;-63
2022/02/17 18:20:42;;;;;;;6.32;2.45;;;12.50;67.30;;;;;;9974638;28;20041;-63
2022/02/17 18:25:35;;;;;;;10.70;2.88;;;12.40;67.60;;;;;;9978071;28;20157;-63
2022/02/17 18:30:26;;;;;;;12.98;3.33;;;12.40;67.80;;;;;;9978983;28;20038;-64
2022/02/17 18:35:19;;;;;;;9.50;3.05;;;12.40;68.40;;;;;;9983747;28;20046;-64
2022/02/17 18:40:10;;;;;;;5.90;2.85;;;12.40;67.80;;;;;;9976730;28;20022;-66
2022/02/17 18:45:20;;;;;;;8.88;2.75;;;12.30;68.10;;;;;;9979061;28;20084;-65
2022/02/17 18:50:13;;;;;;;13.38;2.75;;;12.30;68.20;;;;;;9977010;28;20401;-63
2022/02/17 18:55:09;;;;;;;11.70;3.03;;;12.30;68.40;;;;;;9979429;28;20030;-66
2022/02/17 19:00:00;;;;;;;8.18;2.60;;;12.30;68.40;;;;;;9957284;28;20126;-62
2022/02/17 19:04:52;;;;;;;7.68;2.72;;;12.30;68.30;;;;;;9979533;28;20125;-64
2022/02/17 19:09:43;;;;;;;10.50;3.40;;;12.30;68.50;;;;;;9979665;28;20037;-61
2022/02/17 19:14:34;;;;;;;10.02;4.00;;;12.30;68.90;;;;;;9992644;28;20034;-62
2022/02/17 19:19:24;;;;;;;9.93;2.60;;;12.20;69.00;;;;;;9991732;28;20027;-64
2022/02/17 19:24:15;;;;;;;12.73;3.15;;;12.20;69.10;;;;;;9978735;28;20096;-63
2022/02/17 19:29:07;;;;;;;10.75;2.85;;;12.20;69.30;;;;;;9983198;28;20026;-62
2022/02/17 19:33:58;;;;;;;5.80;2.45;;;12.20;69.40;;;;;;9990799;28;20034;-62
2022/02/17 19:38:51;;;;;;;10.75;3.90;;;12.10;69.50;;;;;;9983524;28;20027;-62
2022/02/17 19:43:42;;;;;;;8.23;2.83;;;12.20;69.50;;;;;;9976651;28;20042;-62
2022/02/17 19:48:33;;;;;;;11.55;3.72;;;12.10;69.60;;;;;;9991419;28;20036;-63
2022/02/17 19:53:24;;;;;;;11.13;3.65;;;12.10;69.80;;;;;;9984672;28;20026;-63
2022/02/17 19:58:15;;;;;;;9.50;2.88;;;12.10;69.70;;;;;;9980485;28;20382;-64
2022/02/17 20:03:05;;;;;;;10.70;3.30;;;12.10;69.80;;;;;;9976076;28;20596;-66
2022/02/17 20:07:56;;;;;;;14.18;2.83;;;12.00;69.90;;;;;;9958330;28;20441;-66
2022/02/17 20:12:47;;;;;;;9.10;2.58;;;12.00;70.10;;;;;;9975669;28;20116;-68
2022/02/17 20:17:38;;;;;;;7.15;2.15;;;12.00;70.20;;;;;;9974828;28;20498;-62
2022/02/17 20:22:29;;;;;;;6.95;2.45;;;11.90;70.40;;;;;;9974569;28;20030;-63
2022/02/17 20:27:20;;;;;;;6.68;3.75;;;11.90;70.60;;;;;;9974877;28;20184;-67
2022/02/17 20:32:11;;;;;;;11.20;2.40;;;11.90;70.70;;;;;;9961328;28;20130;-65
2022/02/17 20:37:02;;;;;;;8.40;2.65;;;11.90;70.70;;;;;;9973260;28;20061;-67
2022/02/17 20:41:53;;;;;;;13.15;3.15;;;11.90;71.10;;;;;;9974558;28;20457;-64
2022/02/17 20:52:08;;;;;;;10.32;3.22;;;11.90;71.30;;;;;;9970366;28;20319;-64
2022/02/17 20:56:59;;;;;;;10.65;4.47;;;11.90;71.30;;;;;;9973468;28;20030;-63
2022/02/17 21:01:57;;;;;;;15.50;4.05;;;11.90;71.30;;;;;;10207114;27;20371;-63
2022/02/17 21:06:49;;;;;;;8.43;3.30;;;11.90;71.40;;;;;;10175006;28;20028;-63
2022/02/17 21:11:42;;;;;;;12.63;3.22;;;11.90;71.50;;;;;;10174105;28;20507;-63
2022/02/17 21:16:33;;;;;;;11.20;2.58;;;11.90;71.50;;;;;;10169792;28;20127;-63
2022/02/17 21:21:24;;;;;;;6.88;1.70;;;11.90;71.50;;;;;;10178041;28;20154;-64
2022/02/17 21:26:15;;;;;;;12.32;3.40;;;12.00;71.60;;;;;;10157088;28;20574;-65
2022/02/17 21:31:06;;;;;;;4.53;1.77;;;12.00;71.50;;;;;;10174087;28;20099;-67
2022/02/17 21:35:57;;;;;;;5.65;2.10;;;12.00;71.60;;;;;;10161347;28;20139;-62
2022/02/17 21:40:50;;;;;;;9.95;2.50;;;12.00;71.60;;;;;;10174100;28;20028;-62
2022/02/17 21:45:45;;;;;;;9.43;3.38;;;12.00;71.70;;;;;;10173328;28;20032;-62
2022/02/17 21:50:36;;;;;;;9.57;3.33;;;12.00;71.70;;;;;;10160506;28;20028;-64
2022/02/17 21:55:27;;;;;;;13.65;2.47;;;11.90;71.70;;;;;;10173844;28;20024;-68
2022/02/17 22:00:18;;;;;;;7.45;2.45;;;12.00;71.80;;;;;;10152430;28;20056;-62
2022/02/17 22:05:08;;;;;;;9.48;2.40;;;11.90;71.90;;;;;;10136422;28;20016;-62
2022/02/17 22:09:59;;;;;;;10.90;3.60;;;11.90;72.00;;;;;;10123606;28;20037;-61
2022/02/17 22:14:50;;;;;;;5.75;2.05;;;11.90;71.90;;;;;;10106083;28;20048;-63
2022/02/17 22:19:40;;;;;;;15.00;3.10;;;11.90;72.00;;;;;;10109808;28;20055;-63
2022/02/17 22:24:31;;;;;;;14.57;2.65;;;11.90;71.90;;;;;;10107643;28;20531;-61
2022/02/17 22:29:22;;;;;;;6.95;2.22;;;11.90;72.00;;;;;;10106854;28;20100;-63
2022/02/17 22:34:12;;;;;;;8.40;2.33;;;12.00;71.90;;;;;;10109849;28;20078;-62
2022/02/17 22:39:04;;;;;;;9.27;3.75;;;11.90;72.10;;;;;;10105988;28;20036;-62
2022/02/17 22:43:55;;;;;;;8.50;2.80;;;11.90;72.10;;;;;;10102847;28;20021;-62
2022/02/17 22:48:46;;;;;;;8.77;2.45;;;11.70;72.20;;;;;;10106374;28;20506;-63
2022/02/17 22:53:36;;;;;;;6.85;2.80;;;11.70;72.50;;;;;;10111780;28;20025;-62
2022/02/17 22:58:27;;;;;;;9.85;2.60;;;11.60;72.60;;;;;;10118559;28;20534;-62
2022/02/17 23:03:21;;;;;;;9.32;2.88;;;11.60;72.50;;;;;;10153802;28;20030;-63
2022/02/17 23:13:25;;;;;;;6.53;2.08;;;11.70;72.60;;;;;;10138851;28;20211;-63
2022/02/17 23:23:24;;;;;;;12.45;3.00;;;11.70;72.80;;;;;;10143149;28;20186;-61
2022/02/17 23:28:15;;;;;;;14.48;3.05;;;11.70;72.70;;;;;;10125914;28;20652;-63
2022/02/17 23:33:06;;;;;;;10.23;2.50;;;11.70;72.80;;;;;;10124479;28;20441;-68
2022/02/17 23:37:56;;;;;;;8.90;3.00;;;11.70;72.80;;;;;;10145594;28;20482;-67
2022/02/17 23:42:47;;;;;;;13.30;3.47;;;11.70;72.80;;;;;;10140410;28;20032;-62
2022/02/17 23:47:38;;;;;;;9.23;2.13;;;11.70;73.00;;;;;;10142663;28;20529;-62
2022/02/17 23:52:29;;;;;;;10.63;2.95;;;11.80;73.00;;;;;;10142975;28;20095;-62
2022/02/17 23:57:20;;;;;;;8.75;1.95;;;11.70;72.90;;;;;;10139499;28;20120;-63
